Flight Track Log - Related Links

Times and Time Zones

All times are in EDT time to prevent confusion due to time zone crossing. See the FIV521 flight status page for this flight to view local times or setup timezone preferences in your user account.

Time Position Orientation Groundspeed Altitude Reporting Facility
EDT Latitude Longitude Course Direction KTS MPH feet Rate Location/Type
Sat 03:10:48 PM 28.4333 -81.3333 134° Southeast 170 196 1,000  Level Orlando TRACON
Sat 03:12:00 PM 28.4833 -81.2667 50° Northeast 255 293 5,100 3,609 Climbing Orlando TRACON
Sat 03:13:06 PM 28.5167 -81.1667 69° East 302 348 9,300 3,238 Climbing Orlando TRACON
Sat 03:14:06 PM 28.4500 -81.1167 147° Southeast 303 349 11,900 1,013 Climbing Orlando TRACON
Sat 03:15:40 PM 28.3197 -81.0142 145° Southeast 379 436 11,900 39 Level Miami Center
Sat 03:16:00 PM 28.1060 -81.0239 134° Southeast  Level Estimated
Sat 03:16:40 PM 28.2464 -80.9550 145° Southeast 364 419 12,000  Level Miami Center
Sat 03:17:40 PM 28.1669 -80.8861 143° Southeast 358 412 12,000  Level Miami Center
Sat 03:18:40 PM 28.0853 -80.8197 144° Southeast 358 412 12,000  Level Miami Center
Sat 03:19:40 PM 28.0058 -80.7536 144° Southeast 358 412 12,000 -200 Level Miami Center
Sat 03:20:40 PM 27.9181 -80.6778 143° Southeast 358 412 11,600 -750 Descending Miami Center
Sat 03:21:40 PM 27.8361 -80.6139 145° Southeast 358 412 10,500 -800 Descending Miami Center
Sat 03:22:40 PM 27.7564 -80.5478 144° Southeast 353 406 10,000 -250 Descending Miami Center
Sat 03:23:40 PM 27.6850 -80.4892 144° Southeast 353 406 10,000  Level Miami Center
Sat 03:24:40 PM 27.6133 -80.4261 142° Southeast 342 394 10,000  Level Miami Center
Sat 03:25:40 PM 27.5378 -80.3653 144° Southeast 314 361 10,000 -500 Level Miami Center
Sat 03:26:40 PM 27.4703 -80.3094 144° Southeast 308 354 9,000 -1,300 Descending Miami Center
Sat 03:27:40 PM 27.4025 -80.2558 145° Southeast 303 349 7,400 -1,550 Descending Miami Center
Sat 03:28:40 PM 27.3450 -80.2097 145° Southeast 295 339 5,900 -1,500 Descending Miami Center
Sat 03:29:40 PM 27.2836 -80.1589 144° Southeast 283 326 4,400 -1,200 Descending Miami Center
Sat 03:30:40 PM 27.2392 -80.0900 126° Southeast 254 292 3,500 -1,200 Descending Miami Center
Sat 03:31:40 PM 27.2094 -80.0261 118° Southeast 239 275 2,000 -750 Descending Miami Center
Sat 03:32:40 PM 27.1575 -80.0058 161° South 190 219 2,000 -200 Level Miami Center
Sat 03:33:40 PM 27.1233 -80.0400 222° Southwest 171 197 1,600 -200 Descending Miami Center
Sat 03:34:40 PM 27.0933 -80.0811 231° Southwest 171 197 1,600  Level Miami Center
Sat 03:35:40 PM 27.1506 -80.1342 320° Northwest 128 147 1,600 -50 Level Miami Center
Sat 03:36:40 PM 27.1394 -80.1689 250° West 128 147 1,500 -100 Descending Miami Center
Sat 03:38:00 PM 27.1667 -80.2167 275° West  Level FlightAware Approximate
Sat 03:45:00 PM 27.1817 -80.2213 275° West  Level Estimated
Sat 03:46:00 PM 27.1817 -80.2213 275° West  Level Estimated

Login

Don't have an account? Register now (free) for customized features, flight alerts, and more!